Pagrindinis puslapis
METAR-TAF:

METAR-TAF

Oro uostai :

Pensakola, Florida, Jungtinės Amerikos Valstijos

platuma: 30-21-22N, ilguma: 087-19-24W, Aukštis: 9 m

Dabartinis oras

Ataskaita buvo paskelbta 1 valandą ir 4 minutes, ne 16:56 UTC
Vėjas 5 kt iš Rytų/Šiaurės Rytų
Temperatūra 19°C
Drėgmė 52%
Slėgis 1016 hPa
Matomumas: 16.1 km
Mažai debesys ne aukštis 12000 ft
Su prošvaistėmis ne aukštis 25000 ft

METAR: KNPA 171656Z 06005KT 10SM FEW120 BKN250 19/09 A3001 RMK SLP164 T01940094

Laikas: 13:00 (18:00 UTC)

Prognozė

Prognozė galioja nuo 17 metu 15 UTC su 18 metu 15 UTC
Vėjas 8 kt iš Šiaurės/Šiaurės Rytų
Matomumas 10 km arba daugiau
Su prošvaistėmis ne aukštis 25000 ft
Nuo 18 metu 1200 UTC
Vėjas 12 kt iš Rytų/Šiaurės Rytų
Matomumas 10 km arba daugiau
Išsisklaidę debesys ne aukštis 3500 ft
Su prošvaistėmis ne aukštis 20000 ft

TAF: KNPA 1715/1815 03008KT 9999 BKN250 QNH2990INS FM181200 07012KT 9999 SCT035 BKN200 QNH2990INS T21/1720Z T14/1812Z FN20033

Orai ataskaitas ir orų prognozės (METAR, TAF).

turimą stotys yra geltonos ir raudonos taškus žemėlapyje.

Perkelti pele per norėdami pamatyti stoties vardą.

Tada spustelėkite, norėdami matyti oro stebėjimo ir prognozės.

Norėdami pakeisti žemėlapį: spustelėkite ant žalios mygtukų su juodo kryžiaus žemyn,; žalią mygtuką su brūkšneliu, jei norite nutolinti; arba žalių rodyklių gretimoms žemėlapius.


METAR-TAF: